Time;durP1;ratioP1;P1;durP2;ratioP2;P2;SDS_P1;SDS_P2;PMS_P1;PMS_P2;Temp;Humidity;BMP_temperature;BMP_pressure;BME280_temperature;BME280_humidity;BME280_pressure;Samples;Min_cycle;Max_cycle;Signal;HPM_P1;HPM_P2
2023/08/26 00:00:37;;;;;;;0.10;0.10;;;;;;;20.91;75.27;96941.00;5120636;28;20046;-68
2023/08/26 00:03:05;;;;;;;0.20;0.20;;;;;;;20.97;75.51;96939.91;5120947;28;20046;-68
2023/08/26 00:05:33;;;;;;;0.20;0.20;;;;;;;21.00;75.22;96924.97;5123788;28;20470;-68
2023/08/26 00:08:02;;;;;;;0.10;0.10;;;;;;;20.90;75.69;96917.69;5112056;28;20092;-68
2023/08/26 00:10:30;;;;;;;0.10;0.10;;;;;;;20.84;75.60;96910.66;5113408;27;20036;-68
2023/08/26 00:12:57;;;;;;;0.22;0.22;;;;;;;20.92;75.37;96893.00;5114546;28;20125;-68
2023/08/26 00:15:25;;;;;;;0.20;0.20;;;;;;;21.04;75.38;96866.34;5102842;27;20035;-68
2023/08/26 00:17:52;;;;;;;0.20;0.20;;;;;;;21.13;75.24;96870.91;5125837;27;20086;-68
2023/08/26 00:20:21;;;;;;;0.13;0.13;;;;;;;21.14;74.66;96891.53;5127211;27;20043;-68
2023/08/26 00:22:50;;;;;;;0.15;0.15;;;;;;;21.11;75.13;96902.94;5110262;27;20114;-68
2023/08/26 00:25:19;;;;;;;0.20;0.20;;;;;;;21.11;75.05;96894.78;5126005;27;20047;-68
2023/08/26 00:27:47;;;;;;;0.10;0.10;;;;;;;20.99;75.49;96890.78;5127177;27;20054;-67
2023/08/26 00:30:15;;;;;;;0.13;0.13;;;;;;;20.98;75.08;96889.97;5124278;27;20043;-68
2023/08/26 00:32:42;;;;;;;0.15;0.15;;;;;;;21.12;74.57;96893.72;5102537;27;20051;-68
2023/08/26 00:35:11;;;;;;;0.20;0.20;;;;;;;21.13;74.60;96900.75;5122678;27;20044;-66
2023/08/26 00:37:39;;;;;;;0.10;0.10;;;;;;;20.94;75.82;96883.47;5103835;27;20683;-68
2023/08/26 00:40:08;;;;;;;0.10;0.10;;;;;;;20.88;76.18;96868.31;5095636;28;20525;-65
2023/08/26 00:42:38;;;;;;;0.13;0.13;;;;;;;20.88;76.30;96866.41;5094554;28;20069;-66
2023/08/26 00:45:08;;;;;;;0.20;0.20;;;;;;;20.91;75.97;96869.66;5102884;27;20510;-66
2023/08/26 00:47:37;;;;;;;0.13;0.13;;;;;;;20.93;76.01;96867.47;5126658;27;20049;-66
2023/08/26 00:50:06;;;;;;;0.20;0.20;;;;;;;20.92;76.00;96872.09;5126515;27;20061;-67
2023/08/26 00:52:36;;;;;;;0.17;0.17;;;;;;;20.86;76.59;96870.50;5094307;27;20071;-68
2023/08/26 00:55:04;;;;;;;0.10;0.10;;;;;;;20.87;76.70;96863.97;5106935;27;20069;-66
2023/08/26 00:57:32;;;;;;;0.10;0.10;;;;;;;20.87;76.59;96863.97;5109646;28;20044;-67
2023/08/26 01:00:01;;;;;;;0.13;0.13;;;;;;;20.76;76.85;96860.50;5125381;27;20054;-67
2023/08/26 01:02:30;;;;;;;0.17;0.17;;;;;;;20.72;76.89;96864.03;5098297;28;20092;-66
2023/08/26 01:04:58;;;;;;;0.13;0.13;;;;;;;20.66;77.04;96862.44;5101496;27;20050;-67
2023/08/26 01:07:25;;;;;;;0.20;0.20;;;;;;;20.72;76.66;96870.28;5119081;27;20621;-67
2023/08/26 01:09:53;;;;;;;0.13;0.13;;;;;;;20.66;77.25;96878.72;5119814;27;20556;-67
2023/08/26 01:12:27;;;;;;;0.13;0.13;;;;;;;20.70;77.27;96874.34;5100499;28;20046;-66
2023/08/26 01:14:58;;;;;;;0.10;0.10;;;;;;;20.47;78.25;96871.16;5084421;28;20048;-66
2023/08/26 01:17:27;;;;;;;0.20;0.20;;;;;;;20.61;77.63;96873.31;5106100;28;20399;-66
2023/08/26 01:19:56;;;;;;;0.10;0.10;;;;;;;20.66;77.47;96878.72;5103233;27;20078;-65
2023/08/26 01:22:24;;;;;;;0.30;0.15;;;;;;;20.77;76.72;96864.81;5100107;28;20135;-66
2023/08/26 01:24:53;;;;;;;0.13;0.13;;;;;;;20.76;76.82;96882.22;5104727;27;20542;-66
2023/08/26 01:27:21;;;;;;;0.10;0.10;;;;;;;20.70;77.27;96902.28;5097811;27;20132;-66
2023/08/26 01:29:49;;;;;;;0.13;0.13;;;;;;;20.67;76.90;96897.41;5120023;27;20048;-68
2023/08/26 01:32:19;;;;;;;0.15;0.15;;;;;;;20.76;76.76;96898.50;5097924;28;20046;-68
2023/08/26 01:34:49;;;;;;;0.20;0.20;;;;;;;20.87;75.99;96910.91;5082678;28;20044;-66
2023/08/26 01:37:19;;;;;;;0.10;0.10;;;;;;;20.92;75.45;96920.13;5096631;28;20240;-67
2023/08/26 01:39:49;;;;;;;0.10;0.10;;;;;;;20.97;75.51;96931.75;5107797;28;20387;-66
2023/08/26 01:42:20;;;;;;;0.13;0.13;;;;;;;21.01;75.03;96921.97;5097807;27;20130;-67
2023/08/26 01:44:49;;;;;;;0.20;0.20;;;;;;;21.08;74.76;96927.09;5102942;27;20050;-67
2023/08/26 01:47:17;;;;;;;0.20;0.20;;;;;;;21.12;74.97;96936.31;5102056;27;20079;-67
2023/08/26 01:49:44;;;;;;;0.13;0.13;;;;;;;21.12;74.99;96937.13;5121844;27;20151;-67
2023/08/26 01:52:12;;;;;;;0.10;0.10;;;;;;;21.15;74.92;96935.78;5103296;27;20047;-66
2023/08/26 01:54:40;;;;;;;0.10;0.10;;;;;;;21.16;74.66;96937.41;5103926;27;20050;-66
2023/08/26 01:57:07;;;;;;;0.20;0.13;;;;;;;21.16;74.75;96940.13;5098325;28;20050;-66
2023/08/26 01:59:36;;;;;;;0.03;0.03;;;;;;;21.18;74.66;96940.66;5090350;28;20039;-68
2023/08/26 02:02:04;;;;;;;0.10;0.10;;;;;;;21.19;74.66;96931.44;5088096;27;20486;-69
2023/08/26 02:04:32;;;;;;;0.10;0.10;;;;;;;21.18;74.65;96925.19;5119632;27;20090;-67
2023/08/26 02:07:00;;;;;;;0.13;0.13;;;;;;;21.20;75.18;96928.44;5111496;27;20050;-68
2023/08/26 02:09:27;;;;;;;0.05;0.05;;;;;;;21.23;74.56;96930.59;5081097;28;20093;-68
2023/08/26 02:11:55;;;;;;;0.00;0.00;;;;;;;21.20;75.41;96933.06;5114349;27;20053;-68
2023/08/26 02:14:23;;;;;;;0.03;0.03;;;;;;;21.24;75.90;96931.41;5091925;28;20040;-68
2023/08/26 02:16:52;;;;;;;0.10;0.10;;;;;;;21.24;75.98;96928.69;5095714;27;20134;-68
2023/08/26 02:19:20;;;;;;;0.10;0.10;;;;;;;21.20;75.94;96923.00;5096662;27;20450;-68
2023/08/26 02:21:47;;;;;;;0.20;0.20;;;;;;;21.15;76.79;96933.88;5105927;27;20191;-68
2023/08/26 02:24:21;;;;;;;0.15;0.15;;;;;;;21.13;76.79;96921.66;5111090;28;20780;-67
2023/08/26 02:26:49;;;;;;;0.15;0.15;;;;;;;21.05;77.90;96916.81;5102959;28;20051;-67
2023/08/26 02:29:16;;;;;;;0.20;0.20;;;;;;;21.01;78.59;96915.75;5103416;27;20046;-67
2023/08/26 02:31:45;;;;;;;0.15;0.15;;;;;;;20.99;79.07;96917.91;5098437;27;20051;-67
2023/08/26 02:34:14;;;;;;;0.13;0.10;;;;;;;20.93;79.19;96919.84;5096688;28;20503;-67
2023/08/26 02:36:41;;;;;;;0.20;0.15;;;;;;;20.84;79.57;96916.91;5115730;27;20073;-67
2023/08/26 02:39:09;;;;;;;0.20;0.20;;;;;;;20.79;80.09;96913.38;5104347;28;20071;-67
2023/08/26 02:41:37;;;;;;;0.10;0.10;;;;;;;20.73;81.17;96909.06;5085982;27;20039;-67
2023/08/26 02:44:06;;;;;;;0.10;0.10;;;;;;;20.67;81.82;96902.84;5103598;27;20043;-68
2023/08/26 02:46:33;;;;;;;0.10;0.10;;;;;;;20.62;82.00;96905.56;5088744;27;20574;-68
2023/08/26 02:49:01;;;;;;;0.10;0.10;;;;;;;20.55;82.29;96902.34;5120446;27;20035;-66
2023/08/26 02:51:31;;;;;;;0.08;0.08;;;;;;;20.56;82.65;96895.81;5116537;27;20039;-66
2023/08/26 02:53:59;;;;;;;0.10;0.10;;;;;;;20.48;83.09;96899.09;5112708;28;20135;-67
2023/08/26 02:56:26;;;;;;;0.13;0.13;;;;;;;20.44;82.86;96896.13;5093044;27;20047;-67
2023/08/26 02:58:54;;;;;;;0.03;0.03;;;;;;;20.47;83.01;96903.69;5104819;27;20043;-68
2023/08/26 03:01:24;;;;;;;0.10;0.10;;;;;;;20.53;82.83;96907.22;5104894;27;20141;-68
2023/08/26 03:03:51;;;;;;;0.10;0.10;;;;;;;20.56;82.85;96912.09;5091928;28;20166;-68
2023/08/26 03:06:19;;;;;;;0.10;0.10;;;;;;;20.59;83.12;96911.53;5116230;27;20772;-68
2023/08/26 03:08:48;;;;;;;0.20;0.20;;;;;;;20.57;83.14;96913.72;5118458;27;20047;-68
2023/08/26 03:11:16;;;;;;;0.03;0.03;;;;;;;20.55;82.49;96918.63;5102486;27;20406;-68
2023/08/26 03:13:43;;;;;;;0.08;0.08;;;;;;;20.56;83.41;96919.44;5096923;28;20507;-68
2023/08/26 03:16:12;;;;;;;0.10;0.10;;;;;;;20.57;83.37;96916.41;5094756;27;20043;-68
2023/08/26 03:18:40;;;;;;;0.10;0.10;;;;;;;20.53;83.17;96926.22;5105601;27;20066;-68
2023/08/26 03:21:10;;;;;;;0.13;0.13;;;;;;;20.51;83.51;96931.09;5100603;27;20062;-68
2023/08/26 03:23:37;;;;;;;0.10;0.10;;;;;;;20.38;83.74;96929.75;5096249;27;20056;-68
2023/08/26 03:26:07;;;;;;;0.10;0.10;;;;;;;20.42;83.68;96932.75;5104872;27;20047;-68
2023/08/26 03:28:35;;;;;;;0.03;0.03;;;;;;;20.36;83.41;96936.53;5103864;27;20050;-68
2023/08/26 03:31:07;;;;;;;0.03;0.03;;;;;;;20.35;83.67;96937.63;5112468;27;20067;-68
2023/08/26 03:33:39;;;;;;;0.10;0.10;;;;;;;20.31;83.44;96948.16;5088888;27;20039;-68
2023/08/26 03:36:07;;;;;;;0.08;0.08;;;;;;;20.29;83.39;96944.09;5104904;27;20047;-68
2023/08/26 03:38:35;;;;;;;0.20;0.20;;;;;;;20.26;83.54;96950.06;5091834;28;20138;-68
2023/08/26 03:41:03;;;;;;;0.10;0.10;;;;;;;20.26;83.01;96944.63;5089473;28;20055;-68
2023/08/26 03:43:33;;;;;;;0.20;0.20;;;;;;;20.19;83.22;96954.94;5120244;27;20122;-68
2023/08/26 03:46:03;;;;;;;0.13;0.13;;;;;;;20.16;83.35;96959.00;5104797;27;20130;-68
2023/08/26 03:48:31;;;;;;;0.03;0.03;;;;;;;20.20;83.41;96967.41;5099808;27;20074;-69
2023/08/26 03:50:59;;;;;;;0.20;0.20;;;;;;;20.12;83.57;96976.91;5101847;28;20079;-68
2023/08/26 03:53:27;;;;;;;0.10;0.10;;;;;;;20.10;84.02;96977.19;5119573;27;20190;-68
2023/08/26 03:55:55;;;;;;;0.15;0.15;;;;;;;20.02;84.66;96980.44;5101453;28;20047;-68
2023/08/26 03:58:23;;;;;;;0.13;0.13;;;;;;;20.02;84.57;96988.56;5082896;28;20047;-68
2023/08/26 04:00:59;;;;;;;0.10;0.10;;;;;;;20.02;84.56;96990.44;5089286;28;20574;-68
2023/08/26 04:03:27;;;;;;;0.03;0.03;;;;;;;19.96;85.19;96989.63;5110708;28;20062;-68
2023/08/26 04:05:59;;;;;;;0.15;0.15;;;;;;;19.99;85.51;97001.81;5115775;28;20046;-68
2023/08/26 04:08:27;;;;;;;0.13;0.13;;;;;;;19.98;85.86;96998.31;5088990;28;20039;-68
2023/08/26 04:10:56;;;;;;;0.10;0.10;;;;;;;19.94;86.08;96999.91;5088945;28;20513;-68
2023/08/26 04:13:25;;;;;;;0.10;0.10;;;;;;;19.97;86.15;97006.69;5096369;28;20561;-68
2023/08/26 04:15:55;;;;;;;0.20;0.13;;;;;;;19.99;86.07;97007.25;5082220;28;20384;-68
2023/08/26 04:18:24;;;;;;;0.13;0.13;;;;;;;19.92;87.43;96999.38;5104232;28;20147;-68
2023/08/26 04:20:53;;;;;;;0.20;0.20;;;;;;;19.99;86.86;96997.22;5117692;28;20058;-68
2023/08/26 04:23:21;;;;;;;0.13;0.13;;;;;;;20.01;86.97;96994.25;5102181;28;20047;-68
2023/08/26 04:25:48;;;;;;;0.10;0.10;;;;;;;19.94;86.96;96996.38;5105173;28;20146;-68
2023/08/26 04:28:16;;;;;;;0.03;0.03;;;;;;;19.88;87.53;96997.47;5101522;28;20130;-69
2023/08/26 04:30:45;;;;;;;0.17;0.17;;;;;;;19.85;87.39;96996.09;5100695;28;20042;-69
2023/08/26 04:33:14;;;;;;;0.10;0.10;;;;;;;19.84;87.34;96996.38;5110745;28;20044;-68
2023/08/26 04:35:42;;;;;;;0.13;0.13;;;;;;;19.87;86.82;96993.94;5113682;28;20490;-68
2023/08/26 04:38:13;;;;;;;0.10;0.10;;;;;;;19.85;86.55;96993.41;5082511;28;20048;-68
2023/08/26 04:40:42;;;;;;;0.03;0.03;;;;;;;19.83;86.94;96994.75;5103690;28;20040;-68
2023/08/26 04:43:10;;;;;;;0.13;0.13;;;;;;;19.81;86.70;97024.81;5094233;28;20039;-68
2023/08/26 04:45:38;;;;;;;0.13;0.13;;;;;;;19.84;86.79;97024.28;5096632;28;20445;-68
2023/08/26 04:48:06;;;;;;;0.30;0.30;;;;;;;19.84;85.53;97018.84;5109178;28;20040;-68
2023/08/26 04:50:36;;;;;;;0.20;0.20;;;;;;;19.83;86.85;97013.72;5098301;28;20050;-68
2023/08/26 04:53:04;;;;;;;0.10;0.10;;;;;;;19.82;86.77;96993.94;5081038;28;20537;-68
2023/08/26 04:55:32;;;;;;;0.10;0.10;;;;;;;19.79;86.24;96980.94;5102086;28;20046;-68
2023/08/26 04:58:02;;;;;;;0.20;0.20;;;;;;;19.77;86.21;96988.50;5097528;27;20092;-68
2023/08/26 05:00:30;;;;;;;0.03;0.03;;;;;;;19.77;86.83;96988.50;5122585;27;20042;-68
2023/08/26 05:02:57;;;;;;;0.10;0.10;;;;;;;19.75;86.57;97001.50;5100991;28;20135;-68
2023/08/26 05:05:25;;;;;;;0.10;0.10;;;;;;;19.76;86.46;97006.66;5113904;27;20401;-68
2023/08/26 05:07:55;;;;;;;0.20;0.20;;;;;;;19.77;86.02;96992.03;5106136;27;20043;-69
2023/08/26 05:10:24;;;;;;;0.25;0.25;;;;;;;19.76;85.90;97001.25;5113052;27;20039;-68
2023/08/26 05:12:53;;;;;;;0.20;0.20;;;;;;;19.78;85.92;96995.56;5117914;27;20146;-69
2023/08/26 05:15:21;;;;;;;0.15;0.15;;;;;;;19.76;86.34;96995.00;5084908;28;20074;-69
2023/08/26 05:17:48;;;;;;;0.20;0.20;;;;;;;19.74;86.03;96992.56;5077445;28;20048;-68
2023/08/26 05:20:16;;;;;;;0.10;0.10;;;;;;;19.71;86.36;96998.53;5105600;27;20526;-68
2023/08/26 05:22:44;;;;;;;0.20;0.20;;;;;;;19.71;85.73;97000.44;5110354;27;21193;-67
2023/08/26 05:25:13;;;;;;;0.10;0.10;;;;;;;19.73;85.10;96995.53;5113416;27;20044;-67
2023/08/26 05:27:41;;;;;;;0.20;0.20;;;;;;;19.75;85.10;96998.78;5094192;28;20102;-67
2023/08/26 05:30:13;;;;;;;0.10;0.10;;;;;;;19.75;84.32;97005.03;5094517;28;20044;-67
2023/08/26 05:32:48;;;;;;;0.20;0.20;;;;;;;19.77;84.57;96996.63;5084351;28;20054;-68
2023/08/26 05:35:16;;;;;;;0.03;0.03;;;;;;;19.73;84.70;96996.34;5089213;27;20452;-66
2023/08/26 05:37:45;;;;;;;0.10;0.10;;;;;;;19.74;84.04;96989.03;5090918;28;20556;-67
2023/08/26 05:40:16;;;;;;;0.13;0.13;;;;;;;19.72;84.51;96994.75;5084856;27;20102;-66
2023/08/26 05:42:44;;;;;;;0.13;0.13;;;;;;;19.72;84.66;96992.03;5095207;28;20044;-67
2023/08/26 05:45:11;;;;;;;0.15;0.15;;;;;;;19.78;84.71;96993.66;5102534;27;20043;-67
2023/08/26 05:47:39;;;;;;;0.20;0.20;;;;;;;19.73;84.13;97006.38;5101529;27;20112;-67
2023/08/26 05:50:08;;;;;;;0.15;0.15;;;;;;;19.78;84.00;97011.81;5099822;27;20047;-67
2023/08/26 05:52:37;;;;;;;0.15;0.15;;;;;;;19.69;84.62;97016.13;5101339;27;20044;-67
2023/08/26 05:55:05;;;;;;;0.13;0.13;;;;;;;19.73;84.56;97022.63;5121082;27;20073;-67
2023/08/26 05:57:34;;;;;;;0.15;0.15;;;;;;;19.76;84.14;97009.38;5093200;28;20044;-67
2023/08/26 06:00:02;;;;;;;0.10;0.10;;;;;;;19.73;83.84;97006.38;5093268;27;20043;-67
2023/08/26 06:02:42;;;;;;;0.15;0.15;;;;;;;19.75;83.60;96998.78;5120410;27;20051;-67
2023/08/26 06:05:11;;;;;;;0.10;0.10;;;;;;;19.82;83.71;97004.78;5101423;27;20494;-67
2023/08/26 06:07:39;;;;;;;0.03;0.03;;;;;;;19.80;83.37;96990.69;5093452;28;20107;-67
2023/08/26 06:10:07;;;;;;;0.10;0.10;;;;;;;19.85;83.24;97019.66;5108045;27;20039;-67
2023/08/26 06:12:39;;;;;;;0.10;0.10;;;;;;;19.84;83.69;97016.16;5093082;28;20054;-67
2023/08/26 06:15:10;;;;;;;0.10;0.10;;;;;;;19.88;82.73;97008.31;5081772;28;20044;-67
2023/08/26 06:17:41;;;;;;;0.20;0.20;;;;;;;19.85;83.13;97004.22;5076653;28;20044;-67
2023/08/26 06:20:11;;;;;;;0.10;0.10;;;;;;;19.87;82.76;96995.84;5089530;27;20051;-68
2023/08/26 06:22:45;;;;;;;0.20;0.20;;;;;;;19.82;83.17;97004.78;5094364;28;20075;-67
2023/08/26 06:25:13;;;;;;;0.03;0.03;;;;;;;19.86;83.31;97005.03;5090296;28;20098;-68
2023/08/26 06:27:42;;;;;;;0.20;0.20;;;;;;;19.85;82.72;97016.97;5085649;28;20118;-68
2023/08/26 06:30:11;;;;;;;0.20;0.20;;;;;;;19.87;82.88;97029.16;5101642;27;20130;-68
2023/08/26 06:32:38;;;;;;;0.10;0.10;;;;;;;19.82;83.47;97031.88;5083570;28;20064;-68
2023/08/26 06:35:07;;;;;;;0.13;0.13;;;;;;;19.87;83.29;97041.88;5091469;27;20040;-67
2023/08/26 06:37:35;;;;;;;0.13;0.13;;;;;;;19.80;83.97;97034.03;5092808;28;20513;-68
2023/08/26 06:40:03;;;;;;;0.15;0.15;;;;;;;19.87;83.75;97044.59;5081075;27;20090;-68
2023/08/26 06:42:33;;;;;;;0.22;0.22;;;;;;;19.97;83.33;97050.03;5096406;27;20050;-67
2023/08/26 06:45:05;;;;;;;0.10;0.10;;;;;;;19.98;83.44;97041.66;5093471;27;20415;-67
2023/08/26 06:47:33;;;;;;;0.20;0.20;;;;;;;19.99;82.96;97035.16;5104529;27;20459;-67
2023/08/26 06:50:02;;;;;;;0.17;0.17;;;;;;;19.95;82.76;97039.47;5086373;28;20052;-68
2023/08/26 06:52:31;;;;;;;0.10;0.10;;;;;;;19.94;82.32;97045.97;5108609;28;20031;-68
2023/08/26 06:54:59;;;;;;;0.03;0.03;;;;;;;20.06;82.53;97054.66;5101278;27;20114;-68
2023/08/26 06:57:26;;;;;;;0.13;0.13;;;;;;;20.13;82.49;97052.53;5111468;27;20081;-68
2023/08/26 06:59:54;;;;;;;0.15;0.15;;;;;;;20.14;81.56;97059.53;5120024;27;20452;-67
2023/08/26 07:02:23;;;;;;;0.10;0.10;;;;;;;20.20;81.66;97056.84;5111709;27;20486;-68
2023/08/26 07:04:51;;;;;;;0.15;0.10;;;;;;;20.14;81.99;97051.41;5118036;27;20047;-68
2023/08/26 07:07:19;;;;;;;0.08;0.08;;;;;;;20.23;82.10;97053.63;5121067;27;20052;-68
2023/08/26 07:09:47;;;;;;;0.10;0.10;;;;;;;20.30;81.29;97054.97;5116619;27;20820;-67
2023/08/26 07:12:15;;;;;;;0.03;0.03;;;;;;;20.32;81.38;97070.97;5118198;27;20488;-66
2023/08/26 07:14:43;;;;;;;0.10;0.10;;;;;;;20.44;81.28;97068.84;5110579;27;20040;-66
2023/08/26 07:17:11;;;;;;;0.20;0.20;;;;;;;20.54;80.34;97058.00;5101360;27;20059;-67
2023/08/26 07:19:40;;;;;;;0.08;0.08;;;;;;;20.61;80.27;97079.41;5117510;27;20047;-67
2023/08/26 07:22:08;;;;;;;0.13;0.13;;;;;;;20.70;80.10;97084.03;5101056;27;20418;-67
2023/08/26 07:24:35;;;;;;;0.10;0.10;;;;;;;20.81;79.58;97092.97;5108678;27;20036;-67
2023/08/26 07:27:03;;;;;;;0.10;0.10;;;;;;;20.89;79.63;97095.13;5137738;22;20038;-71
2023/08/26 07:29:31;;;;;;;0.17;0.17;;;;;;;20.99;79.10;97086.97;5128111;27;20118;-71
2023/08/26 07:31:59;;;;;;;0.20;0.15;;;;;;;21.08;78.62;97090.75;5127868;27;20043;-71
2023/08/26 07:34:27;;;;;;;0.17;0.17;;;;;;;21.10;78.40;97096.72;5131752;27;20039;-71
2023/08/26 07:36:56;;;;;;;0.10;0.10;;;;;;;21.27;77.84;97093.78;5129954;27;20115;-71
2023/08/26 07:39:24;;;;;;;0.08;0.08;;;;;;;21.36;77.47;97089.41;5117074;27;20550;-71
2023/08/26 07:41:52;;;;;;;0.03;0.00;;;;;;;21.41;76.85;97086.66;5117612;27;20050;-71
2023/08/26 07:44:20;;;;;;;0.10;0.10;;;;;;;21.45;76.52;97090.44;5114579;27;20048;-71
2023/08/26 07:46:49;;;;;;;0.20;0.20;;;;;;;21.37;76.09;97091.03;5111650;28;20134;-71
2023/08/26 07:49:20;;;;;;;;;;;;;;;21.44;76.50;97079.84;5110404;28;20035;-71
2023/08/26 07:51:48;;;;;;;0.20;0.20;;;;;;;21.47;75.99;97084.75;5111422;27;20374;-71
2023/08/26 07:54:16;;;;;;;0.17;0.13;;;;;;;21.41;76.25;97096.69;5113601;27;20043;-71
2023/08/26 07:56:44;;;;;;;0.10;0.10;;;;;;;21.58;75.77;97095.31;5120077;27;20047;-71
2023/08/26 07:59:12;;;;;;;0.20;0.20;;;;;;;21.80;74.78;97094.13;5116862;28;20063;-71
2023/08/26 08:01:40;;;;;;;0.10;0.10;;;;;;;21.80;73.93;97099.56;5118850;28;20039;-70
2023/08/26 08:04:07;;;;;;;0.10;0.10;;;;;;;21.95;74.19;97092.13;5117881;28;20032;-71
2023/08/26 08:06:35;;;;;;;0.13;0.13;;;;;;;22.00;72.86;97082.38;5109425;28;20115;-70
2023/08/26 08:09:03;;;;;;;0.10;0.10;;;;;;;22.03;73.49;97098.91;5114290;28;20104;-71
2023/08/26 08:11:32;;;;;;;0.13;0.13;;;;;;;21.95;72.93;97100.28;5114493;28;20047;-71
2023/08/26 08:14:00;;;;;;;0.20;0.13;;;;;;;21.87;73.99;97103.59;5113200;28;20071;-71
2023/08/26 08:16:27;;;;;;;0.20;0.20;;;;;;;21.84;74.76;97103.34;5113821;28;20035;-71
2023/08/26 08:18:55;;;;;;;0.20;0.20;;;;;;;21.73;74.86;97099.03;5113804;28;20398;-71
2023/08/26 08:21:23;;;;;;;0.10;0.10;;;;;;;21.67;75.34;97103.69;5111281;28;20100;-71
2023/08/26 08:23:50;;;;;;;0.13;0.13;;;;;;;21.69;74.93;97108.84;5108951;28;20058;-71
2023/08/26 08:26:18;;;;;;;0.20;0.20;;;;;;;21.62;74.82;97109.13;5110784;28;20221;-71
2023/08/26 08:28:47;;;;;;;0.10;0.10;;;;;;;21.55;74.44;97116.75;5110546;28;20811;-71
2023/08/26 08:31:15;;;;;;;0.17;0.17;;;;;;;21.47;74.37;97112.72;5111228;28;20402;-71
2023/08/26 08:33:43;;;;;;;0.05;0.05;;;;;;;21.42;73.37;97107.28;5108649;28;20048;-71
2023/08/26 08:36:10;;;;;;;0.10;0.03;;;;;;;21.41;74.19;97108.38;5115297;28;20067;-71
2023/08/26 08:38:38;;;;;;;0.15;0.15;;;;;;;21.46;73.60;97118.44;5113846;28;20069;-71
2023/08/26 08:41:06;;;;;;;0.13;0.13;;;;;;;21.39;73.02;97109.72;5109701;28;20046;-72
2023/08/26 08:43:37;;;;;;;0.10;0.10;;;;;;;21.42;72.13;97103.75;5112650;27;20044;-71
2023/08/26 08:46:06;;;;;;;0.20;0.17;;;;;;;21.55;71.96;97112.16;5114785;28;20043;-71
2023/08/26 08:48:34;;;;;;;0.10;0.10;;;;;;;21.70;71.71;97105.03;5114347;28;20518;-71
2023/08/26 08:51:03;;;;;;;0.20;0.10;;;;;;;21.89;71.51;97106.84;5115266;27;20371;-71
2023/08/26 08:53:31;;;;;;;0.13;0.13;;;;;;;22.08;70.42;97095.38;5114619;27;20039;-71
2023/08/26 08:56:00;;;;;;;0.10;0.10;;;;;;;22.05;70.41;97093.19;5112837;28;20383;-72
2023/08/26 08:58:29;;;;;;;0.13;0.13;;;;;;;22.14;70.29;97097.78;5113855;28;20028;-71
2023/08/26 09:00:58;;;;;;;0.10;0.10;;;;;;;22.31;69.33;97092.78;5114412;28;20047;-72
2023/08/26 09:03:27;;;;;;;0.15;0.15;;;;;;;22.41;67.85;97097.34;5103838;28;20087;-71
2023/08/26 09:05:55;;;;;;;0.17;0.17;;;;;;;22.49;66.65;97094.03;5114739;28;20044;-71
2023/08/26 09:08:23;;;;;;;0.10;0.10;;;;;;;22.52;66.44;97098.09;5114359;28;20043;-71
2023/08/26 09:10:52;;;;;;;0.13;0.13;;;;;;;22.58;65.41;97105.09;5108873;28;20067;-71
2023/08/26 09:13:20;;;;;;;0.08;0.08;;;;;;;22.66;64.84;97099.88;5111096;27;20043;-71
2023/08/26 09:15:47;;;;;;;0.13;0.13;;;;;;;22.76;65.53;97095.47;5115378;27;20043;-72
2023/08/26 09:18:18;;;;;;;0.10;0.10;;;;;;;22.92;64.68;97103.22;5116982;27;20040;-71
2023/08/26 09:20:47;;;;;;;0.15;0.10;;;;;;;23.03;64.70;97110.22;5108618;27;20554;-71
2023/08/26 09:23:17;;;;;;;0.20;0.20;;;;;;;23.19;64.16;97110.88;5113483;28;20040;-72
2023/08/26 09:25:52;;;;;;;0.13;0.13;;;;;;;23.26;62.24;97094.97;5112750;28;20064;-71
2023/08/26 09:28:23;;;;;;;0.10;0.10;;;;;;;23.42;62.78;97093.75;5081948;28;20051;-72
2023/08/26 09:31:04;;;;;;;0.30;0.25;;;;;;;23.58;61.72;97099.03;5110289;28;20477;-71
2023/08/26 09:33:32;;;;;;;0.13;0.13;;;;;;;23.59;60.97;97101.47;5113604;28;20055;-71
2023/08/26 09:36:01;;;;;;;0.15;0.08;;;;;;;23.70;61.34;97097.53;5096008;28;20054;-70
2023/08/26 09:38:41;;;;;;;0.10;0.10;;;;;;;23.84;61.22;97094.09;5113491;28;20042;-71
2023/08/26 09:41:10;;;;;;;0.10;0.10;;;;;;;23.89;60.77;97092.09;5096824;28;20134;-71
2023/08/26 09:43:41;;;;;;;0.10;0.10;;;;;;;23.61;60.58;97088.38;5112949;28;20058;-71
2023/08/26 09:46:08;;;;;;;0.10;0.10;;;;;;;23.43;60.96;97098.09;5115187;28;20075;-71
2023/08/26 09:48:36;;;;;;;0.10;0.10;;;;;;;23.26;61.94;97111.31;5113146;28;20058;-71
2023/08/26 09:51:08;;;;;;;0.10;0.10;;;;;;;23.16;61.47;97103.25;5113766;28;20043;-71
2023/08/26 09:53:36;;;;;;;;;;;;;;;23.03;61.30;97110.22;5114595;27;20043;-72
2023/08/26 09:56:05;;;;;;;0.17;0.15;;;;;;;22.89;60.96;97114.69;5106718;28;19920;-71
2023/08/26 09:58:33;;;;;;;0.10;0.10;;;;;;;22.71;60.71;97101.75;5105260;28;20441;-71
2023/08/26 10:01:04;;;;;;;0.10;0.10;;;;;;;22.91;58.40;97089.91;5092264;28;20047;-71
2023/08/26 10:03:33;;;;;;;0.13;0.10;;;;;;;23.14;58.26;97100.03;5109696;27;20050;-71
2023/08/26 10:06:01;;;;;;;0.10;0.10;;;;;;;23.68;56.82;97086.09;5111572;28;20054;-71
2023/08/26 10:08:32;;;;;;;0.10;0.10;;;;;;;23.98;55.22;97079.44;5111193;28;20047;-71
2023/08/26 10:11:03;;;;;;;0.13;0.13;;;;;;;24.21;55.72;97066.03;5112822;27;20510;-71
2023/08/26 10:13:32;;;;;;;0.10;0.10;;;;;;;24.59;53.77;97062.22;5111508;27;20043;-71
2023/08/26 10:16:00;;;;;;;0.32;0.20;;;;;;;24.71;52.57;97075.41;5108123;28;20112;-71
2023/08/26 10:18:35;;;;;;;0.13;0.13;;;;;;;24.80;51.86;97074.44;5105555;28;20044;-71
2023/08/26 10:21:05;;;;;;;0.10;0.10;;;;;;;24.56;52.31;97079.19;5094167;28;20039;-71
2023/08/26 10:23:34;;;;;;;0.13;0.13;;;;;;;24.57;53.54;97077.28;5112624;28;20032;-71
2023/08/26 10:26:04;;;;;;;0.00;0.00;;;;;;;24.83;52.05;97079.28;5111390;28;20463;-71
2023/08/26 10:28:33;;;;;;;0.05;0.05;;;;;;;24.96;50.90;97077.72;5105406;28;20039;-72
2023/08/26 10:31:03;;;;;;;0.20;0.20;;;;;;;25.24;51.00;97079.41;5108746;27;20372;-71
2023/08/26 10:33:33;;;;;;;0.20;0.20;;;;;;;25.38;50.77;97071.22;5112751;28;20504;-71
2023/08/26 10:36:12;;;;;;;0.10;0.10;;;;;;;25.55;50.77;97070.59;5113153;28;20390;-71
2023/08/26 10:38:55;;;;;;;0.13;0.13;;;;;;;25.78;49.88;97077.84;5110636;27;20051;-73
2023/08/26 10:41:23;;;;;;;0.17;0.17;;;;;;;25.90;48.93;97086.34;5106963;28;20035;-71
2023/08/26 10:43:53;;;;;;;0.03;0.03;;;;;;;25.77;50.19;97083.59;5112818;27;20057;-71
2023/08/26 10:46:33;;;;;;;0.10;0.10;;;;;;;25.50;51.06;97085.22;5111983;28;20478;-71
2023/08/26 10:49:01;;;;;;;0.10;0.10;;;;;;;25.23;50.99;97091.44;5111552;28;20055;-71
2023/08/26 10:51:30;;;;;;;0.10;0.10;;;;;;;24.97;51.92;97084.81;5105110;28;20073;-73
2023/08/26 10:54:03;;;;;;;0.03;0.03;;;;;;;24.73;52.31;97084.91;5109464;28;20486;-73
2023/08/26 10:56:33;;;;;;;0.03;0.03;;;;;;;24.46;53.12;97093.81;5103828;28;20039;-71
2023/08/26 10:59:03;;;;;;;0.03;0.03;;;;;;;24.28;53.33;97075.53;5101003;28;20040;-72
2023/08/26 11:01:35;;;;;;;0.03;0.03;;;;;;;24.62;52.59;97074.44;5097974;28;20063;-72
2023/08/26 11:04:04;;;;;;;0.10;0.10;;;;;;;24.60;52.42;97079.41;5106122;28;20045;-73
2023/08/26 11:06:37;;;;;;;0.10;0.10;;;;;;;24.58;51.97;97074.25;5101051;28;20517;-73
2023/08/26 11:09:06;;;;;;;0.10;0.10;;;;;;;24.51;52.19;97063.69;5111102;27;20097;-73
2023/08/26 11:11:34;;;;;;;0.10;0.10;;;;;;;24.72;50.84;97064.16;5111352;28;20515;-73
2023/08/26 11:14:01;;;;;;;0.10;0.10;;;;;;;25.17;48.96;97062.59;5112295;27;20069;-72
2023/08/26 11:16:30;;;;;;;0.17;0.13;;;;;;;25.60;48.53;97065.09;5116365;27;20038;-72
2023/08/26 11:19:01;;;;;;;0.05;0.03;;;;;;;25.58;47.82;97061.81;5115920;27;20448;-73
2023/08/26 11:21:31;;;;;;;0.10;0.10;;;;;;;25.87;47.61;97059.59;5109784;28;20046;-73
2023/08/26 11:24:00;;;;;;;0.10;0.10;;;;;;;26.16;46.93;97061.16;5113465;27;20136;-72
2023/08/26 11:26:29;;;;;;;0.03;0.03;;;;;;;26.20;46.18;97071.19;5110073;28;20146;-72
2023/08/26 11:29:00;;;;;;;0.10;0.10;;;;;;;25.88;46.06;97058.47;5097226;28;20047;-72
2023/08/26 11:31:27;;;;;;;0.00;0.00;;;;;;;26.14;45.42;97060.66;5108165;28;20459;-72
2023/08/26 11:33:56;;;;;;;0.08;0.08;;;;;;;26.44;44.74;97053.72;5110516;28;20040;-73
2023/08/26 11:36:25;;;;;;;0.10;0.10;;;;;;;26.67;44.75;97058.88;5112013;28;20053;-72
2023/08/26 11:38:53;;;;;;;0.10;0.10;;;;;;;26.08;45.63;97057.22;5112851;28;20063;-72
2023/08/26 11:41:21;;;;;;;0.03;0.03;;;;;;;26.09;46.02;97060.75;5111574;28;20039;-72